Have a Safe July 4th! 

Flight Track Log - Related Links

Times and Time Zones

All times are in EDT time to prevent confusion due to time zone crossing. See the N850FD flight status page for this flight to view local times or setup timezone preferences in your user account.

Time Position Orientation Groundspeed Altitude Reporting Facility
EDT Latitude Longitude Course Direction KTS MPH feet Rate Location/Type
Fri 10:16:11 AM 37.7350 -122.2640 310° West 202 232 1,700  Level FlightAware ADS-B
Fri 10:16:36 AM 37.7530 -122.2920 309° West 244 281 2,300 3,055 Climbing FlightAware ADS-B
Fri 10:17:06 AM 37.7740 -122.3260 308° West 248 285 4,500 4,000 Climbing FlightAware ADS-B
Fri 10:17:36 AM 37.7970 -122.3590 311° West 263 303 6,300 3,750 Climbing FlightAware ADS-B
Fri 10:17:46 AM 37.8080 -122.3670 330° Northwest 264 304 7,000 4,200 Climbing FlightAware ADS-B
Fri 10:17:56 AM 37.8200 -122.3690 352° North 267 307 7,700 3,600 Climbing FlightAware ADS-B
Fri 10:18:16 AM 37.8450 -122.3600 16° North 277 319 8,800 3,600 Climbing FlightAware ADS-B
Fri 10:18:31 AM 37.8570 -122.3440 46° Northeast 280 322 9,800 3,800 Climbing FlightAware ADS-B
Fri 10:18:46 AM 37.8640 -122.3190 70° East 294 338 10,700 2,291 Climbing FlightAware ADS-B
Fri 10:19:26 AM 37.8590 -122.2450 95° East 354 407 11,900 2,463 Climbing FlightAware ADS-B
Fri 10:20:21 AM 37.8640 -122.1220 87° East 392 451 14,600 3,000 Climbing FlightAware ADS-B
Fri 10:21:06 AM 37.8840 -122.0170 76° East 412 474 16,900 3,106 Climbing FlightAware ADS-B
Fri 10:21:46 AM 37.9030 -121.9210 76° East 428 493 19,000 3,225 Climbing FlightAware ADS-B
Fri 10:22:26 AM 37.9220 -121.8220 76° East 434 499 21,200 2,965 Climbing FlightAware ADS-B
Fri 10:23:11 AM 37.9430 -121.7120 76° East 447 514 23,200 2,612 Climbing FlightAware ADS-B
Fri 10:23:51 AM 37.9630 -121.6090 76° East 460 529 24,900 2,550 Climbing FlightAware ADS-B
Fri 10:24:31 AM 37.9830 -121.5010 77° East 469 540 26,600 2,400 Climbing FlightAware ADS-B
Fri 10:25:16 AM 38.0060 -121.3770 77° East 479 551 28,300 2,118 Climbing FlightAware ADS-B
Fri 10:25:56 AM 38.0270 -121.2650 77° East 490 564 29,600 2,259 Climbing FlightAware ADS-B
Fri 10:26:41 AM 38.0490 -121.1420 77° East 489 563 31,500 2,753 Climbing FlightAware ADS-B
Fri 10:27:21 AM 38.0690 -121.0340 77° East 476 548 33,500 2,612 Climbing FlightAware ADS-B
Fri 10:28:06 AM 38.0880 -120.9050 79° East 474 545 35,200 2,025 Climbing FlightAware ADS-B
Fri 10:28:41 AM 38.1000 -120.8140 80° East 472 543 36,200 1,543 Climbing FlightAware ADS-B
Fri 10:29:16 AM 38.1130 -120.7180 80° East 474 545 37,000 565 Climbing FlightAware ADS-B
Fri 10:30:06 AM 38.1310 -120.5830 80° East 470 541 37,000  Level FlightAware ADS-B
Fri 10:30:46 AM 38.1460 -120.4720 80° East 470 541 37,000  Level FlightAware ADS-B
Fri 10:31:31 AM 38.1620 -120.3490 81° East 471 542 37,000  Level FlightAware ADS-B
Fri 10:32:01 AM 38.1720 -120.2710 81° East 472 543 37,000  Level FlightAware ADS-B
Fri 10:32:41 AM 38.1860 -120.1630 81° East 474 545 37,000  Level FlightAware ADS-B
Fri 10:33:26 AM 38.2030 -120.0360 80° East 475 547 37,000  Level FlightAware ADS-B
Fri 10:34:11 AM 38.2190 -119.9100 81° East 474 545 37,000  Level FlightAware ADS-B
Fri 10:34:51 AM 38.2320 -119.8040 81° East 473 544 37,000  Level FlightAware ADS-B
Fri 10:35:31 AM 38.2460 -119.6910 81° East 475 547 37,000  Level FlightAware ADS-B
Fri 10:36:16 AM 38.2600 -119.5760 81° East 475 547 37,000  Level FlightAware ADS-B
Fri 10:36:56 AM 38.2720 -119.4820 81° East 475 547 37,000  Level FlightAware ADS-B
Fri 10:37:41 AM 38.2910 -119.3300 81° East 475 547 37,000  Level FlightAware ADS-B
Fri 10:38:21 AM 38.3040 -119.2220 81° East 474 545 37,000  Level FlightAware ADS-B
Fri 10:39:01 AM 38.3170 -119.1120 81° East 473 544 37,000  Level FlightAware ADS-B
Fri 10:39:46 AM 38.3310 -119.0000 81° East 473 544 37,000  Level FlightAware ADS-B
Fri 10:40:26 AM 38.3420 -118.9060 81° East 473 544 37,000  Level FlightAware ADS-B
Fri 10:41:06 AM 38.3540 -118.8120 81° East 473 544 37,000  Level FlightAware ADS-B
Fri 10:41:56 AM 38.3690 -118.6950 81° East 473 544 37,000  Level FlightAware ADS-B
Fri 10:42:36 AM 38.3800 -118.6010 81° East 473 544 37,000  Level FlightAware ADS-B
Fri 10:43:16 AM 38.3920 -118.5070 81° East 473 544 37,000  Level FlightAware ADS-B
Fri 10:43:56 AM 38.4040 -118.4140 81° East 473 544 37,000  Level FlightAware ADS-B
Fri 10:44:36 AM 38.4150 -118.3200 81° East 473 544 37,000  Level FlightAware ADS-B
Fri 10:45:26 AM 38.4300 -118.2030 81° East 473 544 37,000  Level FlightAware ADS-B
Fri 10:46:06 AM 38.4410 -118.1090 81° East 473 544 37,000  Level FlightAware ADS-B
Fri 10:46:46 AM 38.4530 -118.0150 81° East 473 544 37,000  Level FlightAware ADS-B
Fri 10:47:26 AM 38.4650 -117.9210 81° East 473 544 37,000  Level FlightAware ADS-B
Fri 10:48:06 AM 38.4760 -117.8270 81° East 473 544 37,000  Level FlightAware ADS-B
Fri 10:48:56 AM 38.4910 -117.7100 81° East 473 544 37,000  Level FlightAware ADS-B
Fri 10:49:44 AM 38.5119 -117.3697 81° East 471 542 37,000  Level Salt Lake Center
Fri 10:50:46 AM 38.5136 -117.1967 89° East 488 562 37,000  Level Salt Lake Center
Fri 10:51:47 AM 38.4947 -116.9878 97° East 489 563 37,000  Level Salt Lake Center
Fri 10:52:49 AM 38.4803 -116.8147 96° East 487 560 37,000  Level Salt Lake Center
Fri 10:53:51 AM 38.4661 -116.6411 96° East 487 560 37,000  Level Salt Lake Center
Fri 10:54:52 AM 38.4508 -116.4681 96° East 489 563 37,000  Level Salt Lake Center
Fri 10:55:54 AM 38.4361 -116.2983 96° East 483 556 37,000  Level Salt Lake Center
Fri 10:56:56 AM 38.4206 -116.1261 97° East 487 560 37,000  Level Salt Lake Center
Fri 10:57:57 AM 38.4044 -115.9544 97° East 489 563 37,000  Level Salt Lake Center
Fri 10:58:59 AM 38.3881 -115.7817 97° East 492 566 37,000  Level Salt Lake Center
Fri 11:00:01 AM 38.3719 -115.6081 97° East 493 567 37,000  Level Salt Lake Center
Fri 11:01:03 AM 38.3519 -115.3978 97° East 496 571 37,000  Level Salt Lake Center
Fri 11:02:04 AM 38.3364 -115.2394 97° East 494 568 37,000  Level Salt Lake Center
Fri 11:03:06 AM 38.3200 -115.0642 97° East 499 574 37,000  Level Salt Lake Center
Fri 11:04:08 AM 38.3025 -114.8906 97° East 496 571 37,000  Level Salt Lake Center
Fri 11:05:10 AM 38.2803 -114.6831 98° East 494 568 37,000  Level Salt Lake Center
Fri 11:06:12 AM 38.2622 -114.5089 97° East 497 572 37,000  Level Salt Lake Center
Fri 11:07:13 AM 38.2408 -114.3353 99° East 497 572 37,000  Level Salt Lake Center
Fri 11:08:15 AM 38.2119 -114.1647 102° East 495 570 37,000  Level Salt Lake Center
Fri 11:09:17 AM 38.1842 -113.9931 102° East 496 571 37,000  Level Salt Lake Center
Fri 11:10:19 AM 38.1550 -113.8225 102° East 495 570 37,000  Level Salt Lake Center
Fri 11:11:21 AM 38.1256 -113.6539 102° East 490 564 37,000  Level Salt Lake Center
Fri 11:12:23 AM 38.0900 -113.4494 102° East 493 567 37,000  Level Salt Lake Center
Fri 11:13:25 AM 38.0608 -113.2814 102° East 489 563 37,000  Level Salt Lake Center
Fri 11:14:27 AM 38.0294 -113.1108 103° East 493 567 37,000  Level Salt Lake Center
Fri 11:15:29 AM 38.0008 -112.9403 102° East 492 566 37,000  Level Salt Lake Center
Fri 11:16:31 AM 37.9697 -112.7694 103° East 494 568 37,000  Level Salt Lake Center
Fri 11:17:32 AM 37.9386 -112.5997 103° East 491 565 37,000  Level Salt Lake Center
Fri 11:18:34 AM 37.9083 -112.4311 103° East 488 562 37,000  Level Salt Lake Center
Fri 11:19:36 AM 37.8769 -112.2619 103° East 492 566 37,000  Level Salt Lake Center
Fri 11:20:38 AM 37.8383 -112.0594 104° East 493 567 37,000  Level Salt Lake Center
Fri 11:21:40 AM 37.8069 -111.8903 103° East 493 567 37,000  Level Salt Lake Center
Fri 11:22:42 AM 37.7742 -111.7181 103° East 501 577 37,000  Level Salt Lake Center
Fri 11:23:44 AM 37.7422 -111.5483 103° East 500 575 37,000  Level Salt Lake Center
Fri 11:24:46 AM 37.7097 -111.3775 103° East 500 575 37,000  Level Salt Lake Center
Fri 11:25:14 AM 37.6950 -111.3078 105° East 502 578 37,000  Level Denver Center
Fri 11:25:48 AM 37.6756 -111.2064 104° East 502 578 37,000  Level Salt Lake Center
Fri 11:26:16 AM 37.6547 -111.1022 104° East 505 581 37,000  Level Denver Center
Fri 11:27:18 AM 37.6211 -110.9322 104° East 503 579 37,000  Level Denver Center
Fri 11:28:20 AM 37.5872 -110.7600 104° East 505 581 37,000  Level Denver Center
Fri 11:29:22 AM 37.5528 -110.5892 104° East 506 582 37,000  Level Denver Center
Fri 11:30:24 AM 37.5169 -110.4117 104° East 508 585 37,000  Level Denver Center
Fri 11:31:26 AM 37.4828 -110.2453 104° East 507 583 37,000  Level Denver Center
Fri 11:33:02 AM 37.4267 -109.9719 104° East 507 583 37,000  Level Salt Lake Center
Fri 11:33:30 AM 37.4039 -109.8625 105° East 509 586 37,000  Level Denver Center
Fri 11:34:32 AM 37.3697 -109.6978 105° East 508 585 37,000  Level Denver Center
Fri 11:35:34 AM 37.3283 -109.5042 105° East 512 589 37,000  Level Denver Center
Fri 11:36:36 AM 37.2944 -109.3375 104° East 513 590 37,000  Level Denver Center
Fri 11:37:38 AM 37.2522 -109.1444 105° East 512 589 37,000  Level Denver Center
Fri 11:38:40 AM 37.2158 -108.9786 105° East 513 590 37,000  Level Denver Center
Fri 11:39:42 AM 37.1800 -108.8119 105° East 516 594 37,000  Level Denver Center
Fri 11:40:44 AM 37.1381 -108.6194 105° East 513 590 37,000  Level Denver Center
Fri 11:41:46 AM 37.1008 -108.4517 105° East 517 595 37,000  Level Denver Center
Fri 11:42:48 AM 37.0586 -108.2592 105° East 514 592 37,000  Level Denver Center
Fri 11:43:50 AM 37.0206 -108.0928 106° East 518 596 37,000  Level Denver Center
Fri 11:44:52 AM 36.9839 -107.9011 103° East 509 586 37,000  Level Denver Center
Fri 11:45:54 AM 36.9600 -107.7347 100° East 510 587 37,000  Level Denver Center
Fri 11:46:56 AM 36.9303 -107.5372 101° East 516 594 37,000  Level Denver Center
Fri 11:47:58 AM 36.9042 -107.3667 101° East 519 597 37,000  Level Denver Center
Fri 11:49:00 AM 36.8772 -107.1967 101° East 522 601 37,000  Level Denver Center
Fri 11:50:02 AM 36.8467 -106.9986 101° East 521 600 37,000  Level Denver Center
Fri 11:51:04 AM 36.8194 -106.8278 101° East 521 600 37,000  Level Denver Center
Fri 11:52:06 AM 36.7872 -106.6267 101° East 528 608 37,000  Level Denver Center
Fri 11:53:09 AM 36.7597 -106.4556 101° East 526 605 37,000  Level Denver Center
Fri 11:54:11 AM 36.7294 -106.2711 102° East 528 608 37,000  Level Denver Center
Fri 11:55:13 AM 36.7003 -106.0892 101° East 534 615 37,000  Level Denver Center
Fri 11:56:15 AM 36.6703 -105.9097 102° East 531 611 37,000  Level Denver Center
Fri 11:57:17 AM 36.6400 -105.7022 100° East 532 612 37,000  Level Denver Center
Fri 11:58:19 AM 36.6283 -105.5281 95° East 531 611 37,000  Level Denver Center
Fri 11:58:59 AM 36.6156 -105.3828 96° East 526 605 37,000  Level Albuquerque Center
Fri 12:00:01 PM 36.5981 -105.2122 97° East 521 600 37,000  Level Albuquerque Center
Fri 12:01:03 PM 36.5808 -105.0383 97° East 524 603 37,000  Level Albuquerque Center
Fri 12:02:05 PM 36.5594 -104.8250 97° East 527 606 37,000  Level Albuquerque Center
Fri 12:03:07 PM 36.5419 -104.6411 97° East 529 609 37,000  Level Albuquerque Center
Fri 12:04:09 PM 36.5253 -104.4592 96° East 526 605 37,000  Level Albuquerque Center
Fri 12:05:11 PM 36.5069 -104.2753 97° East 528 608 37,000  Level Albuquerque Center
Fri 12:06:13 PM 36.4892 -104.0953 97° East 524 603 37,000  Level Albuquerque Center
Fri 12:07:15 PM 36.4708 -103.9156 97° East 520 598 37,000  Level Albuquerque Center
Fri 12:08:17 PM 36.4533 -103.7333 97° East 523 602 37,000  Level Albuquerque Center
Fri 12:09:19 PM 36.4336 -103.5525 98° East 524 603 37,000  Level Albuquerque Center
Fri 12:10:21 PM 36.4114 -103.3403 97° East 525 604 37,000  Level Albuquerque Center
Fri 12:11:23 PM 36.3919 -103.1603 98° East 522 601 37,000  Level Albuquerque Center
Fri 12:12:25 PM 36.3725 -102.9803 98° East 521 600 37,000  Level Albuquerque Center
Fri 12:13:27 PM 36.3531 -102.7978 97° East 522 601 37,000  Level Albuquerque Center
Fri 12:14:29 PM 36.3325 -102.6183 98° East 524 603 37,000  Level Albuquerque Center
Fri 12:15:31 PM 36.3117 -102.4378 98° East 527 606 37,000  Level Albuquerque Center
Fri 12:16:33 PM 36.2908 -102.2569 98° East 529 609 37,000  Level Albuquerque Center
Fri 12:17:35 PM 36.2706 -102.0758 98° East 530 610 37,000  Level Albuquerque Center
Fri 12:18:37 PM 36.2444 -101.8603 98° East 528 608 37,000  Level Albuquerque Center
Fri 12:19:39 PM 36.2236 -101.6800 98° East 528 608 37,000  Level Albuquerque Center
Fri 12:20:41 PM 36.2008 -101.4969 99° East 532 612 37,000  Level Albuquerque Center
Fri 12:21:43 PM 36.1794 -101.3142 98° East 534 615 37,000  Level Albuquerque Center
Fri 12:22:45 PM 36.1536 -101.1150 99° East 539 620 37,000  Level Albuquerque Center
Fri 12:23:47 PM 36.1297 -100.9322 99° East 537 618 37,000  Level Albuquerque Center
Fri 12:24:49 PM 36.1078 -100.7483 98° East 539 620 37,000  Level Albuquerque Center
Fri 12:25:51 PM 36.0828 -100.5642 99° East 541 623 37,000  Level Albuquerque Center
Fri 12:26:53 PM 36.0594 -100.3806 99° East 542 624 37,000  Level Albuquerque Center
Fri 12:27:55 PM 36.0342 -100.1964 100° East 542 624 37,000  Level Albuquerque Center
Fri 12:28:18 PM 36.0242 -100.1236 100° East 541 623 37,000  Level Kansas City Center
Fri 12:29:22 PM 36.0006 -99.9389 99° East 542 624 37,000  Level Kansas City Center
Fri 12:30:22 PM 35.9694 -99.7181 100° East 543 625 37,000  Level Kansas City Center
Fri 12:31:26 PM 35.9453 -99.5344 99° East 543 625 37,000  Level Kansas City Center
Fri 12:32:26 PM 35.9192 -99.3467 100° East 544 626 37,000  Level Kansas City Center
Fri 12:38:01 PM 35.7670 -98.3060 100° East 548 631 37,000  Level FlightAware ADS-B
Fri 12:38:41 PM 35.7480 -98.1850 101° East 548 631 37,000  Level FlightAware ADS-B
Fri 12:39:21 PM 35.7310 -98.0680 100° East 548 631 37,000  Level FlightAware ADS-B
Fri 12:40:06 PM 35.7090 -97.9240 101° East 549 632 37,000  Level FlightAware ADS-B
Fri 12:40:46 PM 35.6920 -97.8090 100° East 549 632 37,000  Level FlightAware ADS-B
Fri 12:41:31 PM 35.6690 -97.6650 101° East 548 631 37,000  Level FlightAware ADS-B
Fri 12:42:11 PM 35.6500 -97.5490 101° East 547 629 37,000  Level FlightAware ADS-B
Fri 12:43:11 PM 35.6230 -97.3670 100° East 547 629 37,000  Level FlightAware ADS-B
Fri 12:43:51 PM 35.6000 -97.2310 102° East 549 632 37,000  Level FlightAware ADS-B
Fri 12:44:46 PM 35.5750 -97.0760 101° East 549 632 37,000  Level FlightAware ADS-B
Fri 12:45:26 PM 35.5590 -96.9720 101° East 549 632 37,000  Level FlightAware ADS-B
Fri 12:46:06 PM 35.5420 -96.8680 101° East 549 632 37,000  Level FlightAware ADS-B
Fri 12:46:56 PM 35.5220 -96.7370 101° East 549 632 37,000  Level FlightAware ADS-B
Fri 12:47:36 PM 35.5050 -96.6330 101° East 549 632 37,000  Level FlightAware ADS-B
Fri 12:48:16 PM 35.4710 -96.4380 102° East 547 629 37,000  Level FlightAware ADS-B
Fri 12:48:51 PM 35.4510 -96.3190 102° East 550 633 37,000  Level FlightAware ADS-B
Fri 12:49:41 PM 35.4240 -96.1630 102° East 553 636 37,000  Level FlightAware ADS-B
Fri 12:50:26 PM 35.4010 -96.0290 102° East 555 639 37,000  Level FlightAware ADS-B
Fri 12:51:01 PM 35.3820 -95.9170 102° East 556 640 37,000  Level FlightAware ADS-B
Fri 12:51:46 PM 35.3620 -95.7940 101° East 557 641 37,000  Level FlightAware ADS-B
Fri 12:52:41 PM 35.3320 -95.6200 102° East 558 642 37,000  Level FlightAware ADS-B
Fri 12:53:21 PM 35.3150 -95.5140 101° East 558 642 37,000  Level FlightAware ADS-B
Fri 12:54:01 PM 35.2980 -95.4090 101° East 558 642 37,000  Level FlightAware ADS-B
Fri 12:54:46 PM 35.3750 -95.8730 282° West 559 643 37,000  Level FlightAware ADS-B
Fri 12:55:31 PM 35.3530 -95.7470 102° East 559 643 37,000  Level FlightAware ADS-B
Fri 12:56:11 PM 35.2140 -94.9610 102° East 563 648 37,000  Level FlightAware ADS-B
Fri 12:56:56 PM 35.1900 -94.8280 102° East 563 648 37,000  Level FlightAware ADS-B
Fri 12:57:41 PM 35.1650 -94.6920 103° East 564 649 37,000  Level FlightAware ADS-B
Fri 12:58:21 PM 35.1420 -94.5670 103° East 563 648 37,000  Level FlightAware ADS-B
Fri 12:59:01 PM 35.1200 -94.4450 102° East 561 646 37,000  Level FlightAware ADS-B
Fri 12:59:46 PM 35.0950 -94.3110 103° East 562 647 37,000 -635 Level FlightAware ADS-B
Fri 01:00:26 PM 35.0700 -94.1750 103° East 569 655 36,100 -1,200 Descending FlightAware ADS-B
Fri 01:01:06 PM 35.0470 -94.0560 103° East 565 650 35,400 -750 Descending FlightAware ADS-B
Fri 01:01:46 PM 35.0240 -93.9270 102° East 564 649 35,100 -282 Descending FlightAware ADS-B
Fri 01:02:31 PM 35.0220 -93.9140 101° East 564 649 35,000 -71 Descending FlightAware ADS-B
Fri 01:03:11 PM 35.0030 -93.8090 102° East 564 649 35,000  Level FlightAware ADS-B
Fri 01:03:51 PM 34.9850 -93.7030 102° East 564 649 35,000  Level FlightAware ADS-B
Fri 01:04:41 PM 34.9620 -93.5700 102° East 564 649 35,000  Level FlightAware ADS-B
Fri 01:05:21 PM 34.9440 -93.4640 102° East 564 649 35,000  Level FlightAware ADS-B
Fri 01:06:01 PM 34.9250 -93.3580 102° East 564 649 35,000  Level FlightAware ADS-B
Fri 01:06:41 PM 34.9070 -93.2530 102° East 564 649 35,000  Level FlightAware ADS-B
Fri 01:07:21 PM 34.8880 -93.1470 102° East 564 649 35,000  Level FlightAware ADS-B
Fri 01:08:01 PM 34.8700 -93.0410 102° East 564 649 35,000  Level FlightAware ADS-B
Fri 01:08:51 PM 34.8470 -92.9090 102° East 564 649 35,000  Level FlightAware ADS-B
Fri 01:09:31 PM 34.8280 -92.8030 102° East 564 649 35,000  Level FlightAware ADS-B
Fri 01:10:11 PM 34.8100 -92.6970 102° East 564 649 35,000  Level FlightAware ADS-B
Fri 01:10:51 PM 34.7910 -92.5920 102° East 564 649 35,000  Level FlightAware ADS-B
Fri 01:11:41 PM 34.7680 -92.4600 102° East 564 649 35,000 -3,579 Level FlightAware ADS-B
Fri 01:12:45 PM 34.6300 -91.9547 102° East 487 560 28,200 -3,774 Descending Memphis Center
Fri 01:13:45 PM 34.5967 -91.7878 104° East 487 560 27,200 -857 Descending Memphis Center
Fri 01:14:44 PM 34.5669 -91.6258 103° East 494 568 26,500 -1,441 Descending Memphis Center
Fri 01:16:44 PM 34.5617 -91.2928 91° East 484 557 22,900 -1,790 Descending Memphis Center
Fri 01:17:45 PM 34.5772 -91.1339 83° East 484 557 21,100 -1,785 Descending Memphis Center
Fri 01:18:45 PM 34.5886 -90.9778 85° East 472 543 19,300 -1,800 Descending Memphis Center
Fri 01:19:45 PM 34.5997 -90.8289 85° East 451 519 17,500 -1,491 Descending Memphis Center
Fri 01:21:38 PM 34.6333 -90.5667 81° East 383 441 15,000 -1,040 Descending KMEM
Fri 01:22:38 PM 34.7000 -90.4833 46° Northeast 335 386 14,500 -700 Descending KMEM
Fri 01:23:38 PM 34.7500 -90.3833 59° Northeast 327 376 13,600 -1,150 Descending KMEM
Fri 01:24:38 PM 34.8167 -90.3000 46° Northeast 332 382 12,200 -1,300 Descending KMEM
Fri 01:25:38 PM 34.8667 -90.2167 54° Northeast 322 371 11,000 -1,150 Descending KMEM
Fri 01:26:38 PM 34.9167 -90.1500 48° Northeast 267 307 9,900 -1,053 Descending KMEM
Fri 01:27:32 PM 34.9667 -90.1167 29° Northeast 211 243 9,000 -1,158 Descending KMEM
Fri 01:28:32 PM 35.0333 -90.1000 12° North 221 254 7,700 -1,238 Descending KMEM
Fri 01:29:38 PM 35.1000 -90.1000 360° North 227 261 6,400 -1,095 Descending KMEM
Fri 01:30:38 PM 35.1500 -90.1000 360° North 220 253 5,400 -1,065 Descending KMEM
Fri 01:32:44 PM 35.2364 -90.0419 29° Northeast 180 207 3,100 -871 Descending Memphis Center
Fri 01:33:44 PM 35.2092 -89.9886 122° Southeast 171 197 2,700 -579 Descending Memphis Center
Fri 01:34:38 PM 35.1500 -89.9667 163° South 168 193 2,000 -632 Descending KMEM
Fri 01:35:38 PM 35.1167 -89.9667 180° South 160 184 1,500 -650 Descending KMEM
Fri 01:36:38 PM 35.0667 -89.9667 180° South 142 163 700 -800 Descending KMEM
Fri 01:38:00 PM 35.0424 -89.9767 151° Southeast  Level Estimated
Fri 01:45:00 PM 35.0424 -89.9767 151° Southeast  Level Estimated
Fri 01:46:00 PM 35.0424 -89.9767 151° Southeast  Level Estimated
Fri 01:47:00 PM 35.0424 -89.9767 151° Southeast  Level Estimated
Fri 01:48:00 PM 35.0424 -89.9767 151° Southeast  Level Estimated
Fri 01:49:00 PM 35.0424 -89.9767 151° Southeast  Level Estimated
Fri 01:50:00 PM 35.0424 -89.9767 151° Southeast  Level Estimated

Login

Don't have an account? Register now (free) for customized features, flight alerts, and more!